sensor_id;sensor_type;location;lat;lon;timestamp;P1;durP1;ratioP1;P2;durP2;ratioP2
22160;SDS011;49035;48.812;11.762;2022-07-29T00:02:22;5.95;;;4.30;;
22160;SDS011;49035;48.812;11.762;2022-07-29T00:04:47;8.68;;;4.85;;
22160;SDS011;49035;48.812;11.762;2022-07-29T00:07:13;5.13;;;4.60;;
22160;SDS011;49035;48.812;11.762;2022-07-29T00:09:38;5.03;;;4.18;;
22160;SDS011;49035;48.812;11.762;2022-07-29T00:12:04;5.88;;;4.68;;
22160;SDS011;49035;48.812;11.762;2022-07-29T00:14:30;5.13;;;4.53;;
22160;SDS011;49035;48.812;11.762;2022-07-29T00:16:55;5.78;;;4.82;;
22160;SDS011;49035;48.812;11.762;2022-07-29T00:19:21;7.32;;;4.43;;
22160;SDS011;49035;48.812;11.762;2022-07-29T00:21:47;6.63;;;5.13;;
22160;SDS011;49035;48.812;11.762;2022-07-29T00:24:12;5.50;;;4.65;;
22160;SDS011;49035;48.812;11.762;2022-07-29T00:26:38;6.50;;;4.72;;
22160;SDS011;49035;48.812;11.762;2022-07-29T00:29:03;8.20;;;5.00;;
22160;SDS011;49035;48.812;11.762;2022-07-29T00:31:30;7.97;;;5.25;;
22160;SDS011;49035;48.812;11.762;2022-07-29T00:33:56;7.38;;;5.30;;
22160;SDS011;49035;48.812;11.762;2022-07-29T00:36:22;4.80;;;4.32;;
22160;SDS011;49035;48.812;11.762;2022-07-29T00:38:48;6.18;;;4.95;;
22160;SDS011;49035;48.812;11.762;2022-07-29T00:41:15;5.55;;;4.75;;
22160;SDS011;49035;48.812;11.762;2022-07-29T00:43:42;7.57;;;4.65;;
22160;SDS011;49035;48.812;11.762;2022-07-29T00:46:07;6.10;;;5.00;;
22160;SDS011;49035;48.812;11.762;2022-07-29T00:48:33;6.25;;;4.95;;
22160;SDS011;49035;48.812;11.762;2022-07-29T00:50:59;5.65;;;5.10;;
22160;SDS011;49035;48.812;11.762;2022-07-29T00:53:27;8.07;;;4.95;;
22160;SDS011;49035;48.812;11.762;2022-07-29T00:55:53;6.90;;;5.10;;
22160;SDS011;49035;48.812;11.762;2022-07-29T00:58:20;8.43;;;4.95;;
22160;SDS011;49035;48.812;11.762;2022-07-29T01:00:46;9.00;;;5.05;;
22160;SDS011;49035;48.812;11.762;2022-07-29T01:03:11;7.03;;;4.75;;
22160;SDS011;49035;48.812;11.762;2022-07-29T01:05:37;5.47;;;4.93;;
22160;SDS011;49035;48.812;11.762;2022-07-29T01:08:05;6.80;;;5.25;;
22160;SDS011;49035;48.812;11.762;2022-07-29T01:10:32;5.95;;;5.00;;
22160;SDS011;49035;48.812;11.762;2022-07-29T01:13:02;6.15;;;4.97;;
22160;SDS011;49035;48.812;11.762;2022-07-29T01:15:29;8.75;;;5.80;;
22160;SDS011;49035;48.812;11.762;2022-07-29T01:18:37;10.07;;;5.32;;
22160;SDS011;49035;48.812;11.762;2022-07-29T01:29:26;5.82;;;5.15;;
22160;SDS011;49035;48.812;11.762;2022-07-29T01:34:27;7.88;;;6.00;;
22160;SDS011;49035;48.812;11.762;2022-07-29T01:39:43;9.27;;;6.30;;
22160;SDS011;49035;48.812;11.762;2022-07-29T01:44:45;6.45;;;5.80;;
22160;SDS011;49035;48.812;11.762;2022-07-29T01:47:19;9.32;;;6.50;;
22160;SDS011;49035;48.812;11.762;2022-07-29T01:49:49;7.45;;;6.47;;
22160;SDS011;49035;48.812;11.762;2022-07-29T01:52:27;10.75;;;6.68;;
22160;SDS011;49035;48.812;11.762;2022-07-29T01:54:55;7.93;;;5.60;;
22160;SDS011;49035;48.812;11.762;2022-07-29T01:57:25;6.75;;;6.00;;
22160;SDS011;49035;48.812;11.762;2022-07-29T01:59:52;6.10;;;5.50;;
22160;SDS011;49035;48.812;11.762;2022-07-29T02:02:19;8.25;;;6.30;;
22160;SDS011;49035;48.812;11.762;2022-07-29T02:04:47;6.90;;;5.88;;
22160;SDS011;49035;48.812;11.762;2022-07-29T02:07:15;6.90;;;6.18;;
22160;SDS011;49035;48.812;11.762;2022-07-29T02:09:44;6.55;;;5.95;;
22160;SDS011;49035;48.812;11.762;2022-07-29T02:12:12;6.90;;;6.20;;
22160;SDS011;49035;48.812;11.762;2022-07-29T02:14:42;9.18;;;5.95;;
22160;SDS011;49035;48.812;11.762;2022-07-29T02:17:11;7.85;;;6.25;;
22160;SDS011;49035;48.812;11.762;2022-07-29T02:19:38;7.57;;;5.97;;
22160;SDS011;49035;48.812;11.762;2022-07-29T02:22:05;6.80;;;6.13;;
22160;SDS011;49035;48.812;11.762;2022-07-29T02:24:32;7.70;;;6.95;;
22160;SDS011;49035;48.812;11.762;2022-07-29T02:27:00;8.45;;;6.82;;
22160;SDS011;49035;48.812;11.762;2022-07-29T02:29:27;9.77;;;6.45;;
22160;SDS011;49035;48.812;11.762;2022-07-29T02:31:55;9.02;;;6.95;;
22160;SDS011;49035;48.812;11.762;2022-07-29T02:34:23;12.32;;;6.75;;
22160;SDS011;49035;48.812;11.762;2022-07-29T02:36:50;7.63;;;6.78;;
22160;SDS011;49035;48.812;11.762;2022-07-29T02:39:17;10.25;;;6.85;;
22160;SDS011;49035;48.812;11.762;2022-07-29T02:44:17;7.10;;;6.22;;
22160;SDS011;49035;48.812;11.762;2022-07-29T02:46:46;7.13;;;6.43;;
22160;SDS011;49035;48.812;11.762;2022-07-29T02:51:58;10.45;;;7.05;;
22160;SDS011;49035;48.812;11.762;2022-07-29T02:55:01;8.77;;;7.38;;
22160;SDS011;49035;48.812;11.762;2022-07-29T02:57:46;8.60;;;7.70;;
22160;SDS011;49035;48.812;11.762;2022-07-29T03:00:19;12.45;;;6.88;;
22160;SDS011;49035;48.812;11.762;2022-07-29T03:02:51;7.10;;;6.47;;
22160;SDS011;49035;48.812;11.762;2022-07-29T03:05:20;9.75;;;7.47;;
22160;SDS011;49035;48.812;11.762;2022-07-29T03:07:49;7.88;;;7.07;;
22160;SDS011;49035;48.812;11.762;2022-07-29T03:10:19;8.02;;;7.22;;
22160;SDS011;49035;48.812;11.762;2022-07-29T03:12:46;10.85;;;7.07;;
22160;SDS011;49035;48.812;11.762;2022-07-29T03:15:12;8.43;;;7.13;;
22160;SDS011;49035;48.812;11.762;2022-07-29T03:17:39;9.68;;;6.82;;
22160;SDS011;49035;48.812;11.762;2022-07-29T03:20:06;8.35;;;6.88;;
22160;SDS011;49035;48.812;11.762;2022-07-29T03:22:33;7.32;;;6.63;;
22160;SDS011;49035;48.812;11.762;2022-07-29T03:27:39;7.60;;;6.90;;
22160;SDS011;49035;48.812;11.762;2022-07-29T03:30:06;9.77;;;7.47;;
22160;SDS011;49035;48.812;11.762;2022-07-29T03:32:33;9.35;;;7.20;;
22160;SDS011;49035;48.812;11.762;2022-07-29T03:34:58;10.95;;;7.68;;
22160;SDS011;49035;48.812;11.762;2022-07-29T03:37:24;10.48;;;7.80;;
22160;SDS011;49035;48.812;11.762;2022-07-29T03:39:49;8.30;;;6.88;;
22160;SDS011;49035;48.812;11.762;2022-07-29T03:42:17;9.18;;;7.15;;
22160;SDS011;49035;48.812;11.762;2022-07-29T03:44:47;10.90;;;7.53;;
22160;SDS011;49035;48.812;11.762;2022-07-29T03:47:13;10.82;;;6.93;;
22160;SDS011;49035;48.812;11.762;2022-07-29T03:49:41;9.10;;;6.85;;
22160;SDS011;49035;48.812;11.762;2022-07-29T03:52:09;8.88;;;7.00;;
22160;SDS011;49035;48.812;11.762;2022-07-29T03:54:35;8.13;;;7.32;;
22160;SDS011;49035;48.812;11.762;2022-07-29T03:57:00;6.80;;;6.10;;
22160;SDS011;49035;48.812;11.762;2022-07-29T03:59:27;11.27;;;7.60;;
22160;SDS011;49035;48.812;11.762;2022-07-29T04:01:53;8.18;;;7.00;;
22160;SDS011;49035;48.812;11.762;2022-07-29T04:04:21;7.97;;;6.80;;
22160;SDS011;49035;48.812;11.762;2022-07-29T04:06:47;9.88;;;6.63;;
22160;SDS011;49035;48.812;11.762;2022-07-29T04:09:12;8.88;;;7.18;;
22160;SDS011;49035;48.812;11.762;2022-07-29T04:11:39;7.57;;;6.65;;
22160;SDS011;49035;48.812;11.762;2022-07-29T04:14:05;11.02;;;7.90;;
22160;SDS011;49035;48.812;11.762;2022-07-29T04:16:31;10.88;;;8.23;;
22160;SDS011;49035;48.812;11.762;2022-07-29T04:18:57;8.43;;;7.57;;
22160;SDS011;49035;48.812;11.762;2022-07-29T04:21:22;13.30;;;8.13;;
22160;SDS011;49035;48.812;11.762;2022-07-29T04:23:48;9.77;;;7.53;;
22160;SDS011;49035;48.812;11.762;2022-07-29T04:26:18;8.50;;;7.70;;
22160;SDS011;49035;48.812;11.762;2022-07-29T04:28:45;10.10;;;8.30;;
22160;SDS011;49035;48.812;11.762;2022-07-29T04:31:11;8.32;;;7.53;;
22160;SDS011;49035;48.812;11.762;2022-07-29T04:33:37;12.52;;;7.45;;
22160;SDS011;49035;48.812;11.762;2022-07-29T04:36:03;11.88;;;7.43;;
22160;SDS011;49035;48.812;11.762;2022-07-29T04:38:29;9.43;;;6.88;;
22160;SDS011;49035;48.812;11.762;2022-07-29T04:40:54;11.32;;;7.78;;
22160;SDS011;49035;48.812;11.762;2022-07-29T04:43:20;8.85;;;6.97;;
22160;SDS011;49035;48.812;11.762;2022-07-29T04:45:45;7.65;;;6.80;;
22160;SDS011;49035;48.812;11.762;2022-07-29T04:48:11;10.48;;;7.50;;
22160;SDS011;49035;48.812;11.762;2022-07-29T04:50:40;8.75;;;7.45;;
22160;SDS011;49035;48.812;11.762;2022-07-29T04:53:06;10.50;;;8.43;;
22160;SDS011;49035;48.812;11.762;2022-07-29T04:55:32;8.73;;;7.38;;
22160;SDS011;49035;48.812;11.762;2022-07-29T04:57:58;8.52;;;7.53;;
22160;SDS011;49035;48.812;11.762;2022-07-29T05:00:24;8.65;;;7.85;;
22160;SDS011;49035;48.812;11.762;2022-07-29T05:02:50;8.80;;;7.90;;
22160;SDS011;49035;48.812;11.762;2022-07-29T05:05:15;8.02;;;7.25;;
22160;SDS011;49035;48.812;11.762;2022-07-29T05:07:41;7.50;;;6.78;;
22160;SDS011;49035;48.812;11.762;2022-07-29T05:10:07;10.73;;;7.55;;
22160;SDS011;49035;48.812;11.762;2022-07-29T05:12:33;8.73;;;7.25;;
22160;SDS011;49035;48.812;11.762;2022-07-29T05:14:59;8.15;;;7.35;;
22160;SDS011;49035;48.812;11.762;2022-07-29T05:17:25;8.60;;;7.15;;
22160;SDS011;49035;48.812;11.762;2022-07-29T05:19:50;10.90;;;7.07;;
22160;SDS011;49035;48.812;11.762;2022-07-29T05:22:17;11.70;;;7.07;;
22160;SDS011;49035;48.812;11.762;2022-07-29T05:24:44;6.38;;;5.78;;
22160;SDS011;49035;48.812;11.762;2022-07-29T05:27:09;8.82;;;6.45;;
22160;SDS011;49035;48.812;11.762;2022-07-29T05:29:35;7.03;;;6.32;;
22160;SDS011;49035;48.812;11.762;2022-07-29T05:32:01;5.97;;;5.45;;
22160;SDS011;49035;48.812;11.762;2022-07-29T05:34:27;8.52;;;5.75;;
22160;SDS011;49035;48.812;11.762;2022-07-29T05:36:53;6.28;;;5.68;;
22160;SDS011;49035;48.812;11.762;2022-07-29T05:39:18;8.93;;;6.18;;
22160;SDS011;49035;48.812;11.762;2022-07-29T05:41:44;7.63;;;5.80;;
22160;SDS011;49035;48.812;11.762;2022-07-29T05:44:09;7.00;;;6.20;;
22160;SDS011;49035;48.812;11.762;2022-07-29T05:46:36;7.55;;;6.32;;
22160;SDS011;49035;48.812;11.762;2022-07-29T05:49:01;6.82;;;6.20;;
22160;SDS011;49035;48.812;11.762;2022-07-29T05:51:27;7.72;;;6.05;;
22160;SDS011;49035;48.812;11.762;2022-07-29T05:53:54;8.65;;;6.47;;
22160;SDS011;49035;48.812;11.762;2022-07-29T05:56:20;7.78;;;5.60;;
22160;SDS011;49035;48.812;11.762;2022-07-29T05:58:45;5.47;;;4.90;;
22160;SDS011;49035;48.812;11.762;2022-07-29T06:01:11;5.63;;;5.10;;
22160;SDS011;49035;48.812;11.762;2022-07-29T06:03:37;8.32;;;5.30;;
22160;SDS011;49035;48.812;11.762;2022-07-29T06:06:03;6.10;;;5.50;;
22160;SDS011;49035;48.812;11.762;2022-07-29T06:08:29;6.75;;;5.78;;
22160;SDS011;49035;48.812;11.762;2022-07-29T06:10:54;7.10;;;6.20;;
22160;SDS011;49035;48.812;11.762;2022-07-29T06:13:20;6.60;;;5.50;;
22160;SDS011;49035;48.812;11.762;2022-07-29T06:15:45;5.93;;;5.20;;
22160;SDS011;49035;48.812;11.762;2022-07-29T06:18:14;7.43;;;5.72;;
22160;SDS011;49035;48.812;11.762;2022-07-29T06:20:40;7.43;;;5.15;;
22160;SDS011;49035;48.812;11.762;2022-07-29T06:23:05;8.52;;;4.90;;
22160;SDS011;49035;48.812;11.762;2022-07-29T06:25:31;5.68;;;4.57;;
22160;SDS011;49035;48.812;11.762;2022-07-29T06:28:00;5.05;;;4.53;;
22160;SDS011;49035;48.812;11.762;2022-07-29T06:30:26;5.05;;;3.88;;
22160;SDS011;49035;48.812;11.762;2022-07-29T06:32:52;5.00;;;3.53;;
22160;SDS011;49035;48.812;11.762;2022-07-29T06:35:17;4.65;;;4.05;;
22160;SDS011;49035;48.812;11.762;2022-07-29T06:37:43;3.85;;;3.53;;
22160;SDS011;49035;48.812;11.762;2022-07-29T06:40:09;5.22;;;3.67;;
22160;SDS011;49035;48.812;11.762;2022-07-29T06:42:53;4.40;;;3.78;;
22160;SDS011;49035;48.812;11.762;2022-07-29T06:45:19;4.22;;;3.88;;
22160;SDS011;49035;48.812;11.762;2022-07-29T06:47:44;6.15;;;3.97;;
22160;SDS011;49035;48.812;11.762;2022-07-29T06:50:10;6.15;;;3.85;;
22160;SDS011;49035;48.812;11.762;2022-07-29T06:52:37;6.78;;;3.67;;
22160;SDS011;49035;48.812;11.762;2022-07-29T06:55:04;3.80;;;3.00;;
22160;SDS011;49035;48.812;11.762;2022-07-29T06:57:30;4.95;;;3.58;;
22160;SDS011;49035;48.812;11.762;2022-07-29T06:59:58;5.65;;;3.05;;
22160;SDS011;49035;48.812;11.762;2022-07-29T07:02:24;4.05;;;3.28;;
22160;SDS011;49035;48.812;11.762;2022-07-29T07:04:50;5.25;;;3.40;;
22160;SDS011;49035;48.812;11.762;2022-07-29T07:07:16;4.20;;;3.00;;
22160;SDS011;49035;48.812;11.762;2022-07-29T07:09:41;3.25;;;2.85;;
22160;SDS011;49035;48.812;11.762;2022-07-29T07:12:07;7.05;;;2.95;;
22160;SDS011;49035;48.812;11.762;2022-07-29T07:14:33;4.32;;;2.53;;
22160;SDS011;49035;48.812;11.762;2022-07-29T07:16:58;3.17;;;2.88;;
22160;SDS011;49035;48.812;11.762;2022-07-29T07:19:25;4.80;;;2.53;;
22160;SDS011;49035;48.812;11.762;2022-07-29T07:21:55;4.03;;;2.33;;
22160;SDS011;49035;48.812;11.762;2022-07-29T07:24:20;2.90;;;2.40;;
22160;SDS011;49035;48.812;11.762;2022-07-29T07:26:46;3.03;;;2.40;;
22160;SDS011;49035;48.812;11.762;2022-07-29T07:29:11;2.80;;;2.05;;
22160;SDS011;49035;48.812;11.762;2022-07-29T07:31:37;2.20;;;2.00;;
22160;SDS011;49035;48.812;11.762;2022-07-29T07:34:03;2.95;;;1.85;;
22160;SDS011;49035;48.812;11.762;2022-07-29T07:36:29;2.30;;;1.90;;
22160;SDS011;49035;48.812;11.762;2022-07-29T07:38:55;2.03;;;1.63;;
22160;SDS011;49035;48.812;11.762;2022-07-29T07:41:21;2.20;;;2.00;;
22160;SDS011;49035;48.812;11.762;2022-07-29T07:43:47;1.65;;;1.55;;
22160;SDS011;49035;48.812;11.762;2022-07-29T07:46:13;3.28;;;1.63;;
22160;SDS011;49035;48.812;11.762;2022-07-29T07:48:39;2.70;;;1.73;;
22160;SDS011;49035;48.812;11.762;2022-07-29T07:51:05;2.35;;;1.60;;
22160;SDS011;49035;48.812;11.762;2022-07-29T07:53:32;1.55;;;1.45;;
22160;SDS011;49035;48.812;11.762;2022-07-29T07:55:58;3.13;;;1.30;;
22160;SDS011;49035;48.812;11.762;2022-07-29T07:58:23;2.13;;;1.63;;
22160;SDS011;49035;48.812;11.762;2022-07-29T08:00:49;2.85;;;1.70;;
22160;SDS011;49035;48.812;11.762;2022-07-29T08:03:15;1.67;;;1.50;;
22160;SDS011;49035;48.812;11.762;2022-07-29T08:05:40;2.03;;;1.60;;
22160;SDS011;49035;48.812;11.762;2022-07-29T08:08:06;1.88;;;1.63;;
22160;SDS011;49035;48.812;11.762;2022-07-29T08:10:32;2.10;;;1.67;;
22160;SDS011;49035;48.812;11.762;2022-07-29T08:13:16;3.47;;;1.58;;
22160;SDS011;49035;48.812;11.762;2022-07-29T08:15:42;3.28;;;1.75;;
22160;SDS011;49035;48.812;11.762;2022-07-29T08:18:10;1.58;;;1.48;;
22160;SDS011;49035;48.812;11.762;2022-07-29T08:20:36;2.55;;;1.60;;
22160;SDS011;49035;48.812;11.762;2022-07-29T08:23:03;3.75;;;1.58;;
22160;SDS011;49035;48.812;11.762;2022-07-29T08:25:30;1.70;;;1.60;;
22160;SDS011;49035;48.812;11.762;2022-07-29T08:27:57;2.30;;;1.60;;
22160;SDS011;49035;48.812;11.762;2022-07-29T08:30:23;3.00;;;1.50;;
22160;SDS011;49035;48.812;11.762;2022-07-29T08:32:48;2.20;;;1.60;;
22160;SDS011;49035;48.812;11.762;2022-07-29T08:35:17;1.42;;;1.33;;
22160;SDS011;49035;48.812;11.762;2022-07-29T08:37:43;2.28;;;1.50;;
22160;SDS011;49035;48.812;11.762;2022-07-29T08:40:10;1.80;;;1.50;;
22160;SDS011;49035;48.812;11.762;2022-07-29T08:42:36;1.80;;;1.50;;
22160;SDS011;49035;48.812;11.762;2022-07-29T08:45:02;2.65;;;1.27;;
22160;SDS011;49035;48.812;11.762;2022-07-29T08:47:30;1.42;;;1.30;;
22160;SDS011;49035;48.812;11.762;2022-07-29T08:49:55;3.28;;;1.58;;
22160;SDS011;49035;48.812;11.762;2022-07-29T08:52:21;2.35;;;1.40;;
22160;SDS011;49035;48.812;11.762;2022-07-29T08:54:50;2.00;;;1.60;;
22160;SDS011;49035;48.812;11.762;2022-07-29T08:57:18;1.67;;;1.30;;
22160;SDS011;49035;48.812;11.762;2022-07-29T08:59:46;2.33;;;1.50;;
22160;SDS011;49035;48.812;11.762;2022-07-29T09:02:21;4.40;;;1.60;;
22160;SDS011;49035;48.812;11.762;2022-07-29T09:04:49;2.40;;;1.90;;
22160;SDS011;49035;48.812;11.762;2022-07-29T09:07:15;2.50;;;1.70;;
22160;SDS011;49035;48.812;11.762;2022-07-29T09:09:42;3.25;;;1.55;;
22160;SDS011;49035;48.812;11.762;2022-07-29T09:12:08;1.70;;;1.52;;
22160;SDS011;49035;48.812;11.762;2022-07-29T09:14:36;3.22;;;1.55;;
22160;SDS011;49035;48.812;11.762;2022-07-29T09:17:02;2.35;;;1.70;;
22160;SDS011;49035;48.812;11.762;2022-07-29T09:19:32;2.05;;;1.85;;
22160;SDS011;49035;48.812;11.762;2022-07-29T09:22:05;1.63;;;1.52;;
22160;SDS011;49035;48.812;11.762;2022-07-29T09:24:44;2.63;;;1.73;;
22160;SDS011;49035;48.812;11.762;2022-07-29T09:27:25;2.67;;;1.90;;
22160;SDS011;49035;48.812;11.762;2022-07-29T09:30:13;5.18;;;1.80;;
22160;SDS011;49035;48.812;11.762;2022-07-29T09:32:55;3.60;;;1.65;;
22160;SDS011;49035;48.812;11.762;2022-07-29T09:35:26;3.10;;;1.70;;
22160;SDS011;49035;48.812;11.762;2022-07-29T09:37:53;3.20;;;1.30;;
22160;SDS011;49035;48.812;11.762;2022-07-29T09:40:20;2.13;;;1.27;;
22160;SDS011;49035;48.812;11.762;2022-07-29T09:42:48;1.63;;;1.42;;
22160;SDS011;49035;48.812;11.762;2022-07-29T09:45:26;2.13;;;1.38;;
22160;SDS011;49035;48.812;11.762;2022-07-29T09:47:53;2.90;;;1.42;;
22160;SDS011;49035;48.812;11.762;2022-07-29T09:50:20;3.03;;;1.70;;
22160;SDS011;49035;48.812;11.762;2022-07-29T09:52:52;1.95;;;1.70;;
22160;SDS011;49035;48.812;11.762;2022-07-29T09:55:20;1.52;;;1.20;;
22160;SDS011;49035;48.812;11.762;2022-07-29T09:57:46;1.70;;;1.50;;
22160;SDS011;49035;48.812;11.762;2022-07-29T10:00:13;3.53;;;1.77;;
22160;SDS011;49035;48.812;11.762;2022-07-29T10:02:41;1.73;;;1.50;;
22160;SDS011;49035;48.812;11.762;2022-07-29T10:05:24;2.67;;;1.70;;
22160;SDS011;49035;48.812;11.762;2022-07-29T10:07:55;1.95;;;1.75;;
22160;SDS011;49035;48.812;11.762;2022-07-29T10:10:32;1.70;;;1.23;;
22160;SDS011;49035;48.812;11.762;2022-07-29T10:13:03;1.95;;;1.20;;
22160;SDS011;49035;48.812;11.762;2022-07-29T10:15:31;2.90;;;1.30;;
22160;SDS011;49035;48.812;11.762;2022-07-29T10:17:58;1.20;;;1.10;;
22160;SDS011;49035;48.812;11.762;2022-07-29T10:20:25;2.10;;;1.23;;
22160;SDS011;49035;48.812;11.762;2022-07-29T10:22:52;1.65;;;1.20;;
22160;SDS011;49035;48.812;11.762;2022-07-29T10:25:19;2.53;;;1.48;;
22160;SDS011;49035;48.812;11.762;2022-07-29T10:27:46;1.27;;;1.17;;
22160;SDS011;49035;48.812;11.762;2022-07-29T10:30:14;1.20;;;1.10;;
22160;SDS011;49035;48.812;11.762;2022-07-29T10:40:51;1.30;;;1.20;;
22160;SDS011;49035;48.812;11.762;2022-07-29T10:43:58;1.42;;;1.27;;
22160;SDS011;49035;48.812;11.762;2022-07-29T10:46:27;1.27;;;1.13;;
22160;SDS011;49035;48.812;11.762;2022-07-29T10:49:06;1.48;;;1.17;;
22160;SDS011;49035;48.812;11.762;2022-07-29T10:54:18;1.60;;;1.40;;
22160;SDS011;49035;48.812;11.762;2022-07-29T10:57:12;3.05;;;1.08;;
22160;SDS011;49035;48.812;11.762;2022-07-29T10:59:50;1.65;;;1.30;;
22160;SDS011;49035;48.812;11.762;2022-07-29T11:05:05;1.33;;;1.15;;
22160;SDS011;49035;48.812;11.762;2022-07-29T11:07:34;2.42;;;1.10;;
22160;SDS011;49035;48.812;11.762;2022-07-29T11:15:11;1.67;;;1.08;;
22160;SDS011;49035;48.812;11.762;2022-07-29T11:20:32;0.80;;;0.80;;
22160;SDS011;49035;48.812;11.762;2022-07-29T11:22:58;1.25;;;1.08;;
22160;SDS011;49035;48.812;11.762;2022-07-29T11:25:23;1.60;;;1.00;;
22160;SDS011;49035;48.812;11.762;2022-07-29T11:27:49;1.75;;;1.02;;
22160;SDS011;49035;48.812;11.762;2022-07-29T11:30:17;1.20;;;1.10;;
22160;SDS011;49035;48.812;11.762;2022-07-29T11:32:43;2.35;;;1.10;;
22160;SDS011;49035;48.812;11.762;2022-07-29T11:37:46;2.15;;;1.40;;
22160;SDS011;49035;48.812;11.762;2022-07-29T11:40:12;1.02;;;0.90;;
22160;SDS011;49035;48.812;11.762;2022-07-29T11:42:41;2.28;;;1.10;;
22160;SDS011;49035;48.812;11.762;2022-07-29T11:45:12;1.27;;;1.08;;
22160;SDS011;49035;48.812;11.762;2022-07-29T11:50:18;1.45;;;1.02;;
22160;SDS011;49035;48.812;11.762;2022-07-29T11:52:56;1.80;;;1.20;;
22160;SDS011;49035;48.812;11.762;2022-07-29T11:55:22;1.13;;;1.00;;
22160;SDS011;49035;48.812;11.762;2022-07-29T12:00:47;1.38;;;1.25;;
22160;SDS011;49035;48.812;11.762;2022-07-29T12:03:08;1.10;;;0.90;;
22160;SDS011;49035;48.812;11.762;2022-07-29T12:05:38;1.13;;;1.00;;
22160;SDS011;49035;48.812;11.762;2022-07-29T12:08:12;2.50;;;1.25;;
22160;SDS011;49035;48.812;11.762;2022-07-29T12:10:48;2.10;;;1.00;;
22160;SDS011;49035;48.812;11.762;2022-07-29T12:13:16;1.17;;;1.08;;
22160;SDS011;49035;48.812;11.762;2022-07-29T12:15:51;1.15;;;1.00;;
22160;SDS011;49035;48.812;11.762;2022-07-29T12:18:19;1.55;;;1.10;;
22160;SDS011;49035;48.812;11.762;2022-07-29T12:20:46;1.25;;;1.10;;
22160;SDS011;49035;48.812;11.762;2022-07-29T12:23:13;2.20;;;1.10;;
22160;SDS011;49035;48.812;11.762;2022-07-29T12:25:40;3.47;;;1.48;;
22160;SDS011;49035;48.812;11.762;2022-07-29T12:28:11;2.40;;;1.20;;
22160;SDS011;49035;48.812;11.762;2022-07-29T12:35:39;2.92;;;1.33;;
22160;SDS011;49035;48.812;11.762;2022-07-29T12:38:06;1.33;;;1.10;;
22160;SDS011;49035;48.812;11.762;2022-07-29T12:40:33;1.42;;;1.27;;
22160;SDS011;49035;48.812;11.762;2022-07-29T12:43:06;1.50;;;1.40;;
22160;SDS011;49035;48.812;11.762;2022-07-29T12:45:42;1.50;;;1.40;;
22160;SDS011;49035;48.812;11.762;2022-07-29T12:48:15;2.28;;;1.45;;
22160;SDS011;49035;48.812;11.762;2022-07-29T12:50:54;3.88;;;1.35;;
22160;SDS011;49035;48.812;11.762;2022-07-29T12:53:25;1.50;;;1.40;;
22160;SDS011;49035;48.812;11.762;2022-07-29T12:55:51;3.35;;;1.50;;
22160;SDS011;49035;48.812;11.762;2022-07-29T13:03:43;1.58;;;1.33;;
22160;SDS011;49035;48.812;11.762;2022-07-29T13:06:26;1.73;;;1.20;;
22160;SDS011;49035;48.812;11.762;2022-07-29T13:09:01;1.40;;;1.30;;
22160;SDS011;49035;48.812;11.762;2022-07-29T13:11:27;2.20;;;1.33;;
22160;SDS011;49035;48.812;11.762;2022-07-29T13:13:53;1.40;;;1.30;;
22160;SDS011;49035;48.812;11.762;2022-07-29T13:16:19;2.53;;;1.33;;
22160;SDS011;49035;48.812;11.762;2022-07-29T13:18:45;2.72;;;1.50;;
22160;SDS011;49035;48.812;11.762;2022-07-29T13:21:13;2.13;;;1.52;;
22160;SDS011;49035;48.812;11.762;2022-07-29T13:23:40;5.00;;;1.95;;
22160;SDS011;49035;48.812;11.762;2022-07-29T13:26:06;1.77;;;1.67;;
22160;SDS011;49035;48.812;11.762;2022-07-29T13:28:33;2.00;;;1.80;;
22160;SDS011;49035;48.812;11.762;2022-07-29T13:30:59;3.10;;;1.73;;
22160;SDS011;49035;48.812;11.762;2022-07-29T13:33:25;2.70;;;1.55;;
22160;SDS011;49035;48.812;11.762;2022-07-29T13:35:50;1.92;;;1.50;;
22160;SDS011;49035;48.812;11.762;2022-07-29T13:38:16;2.00;;;1.80;;
22160;SDS011;49035;48.812;11.762;2022-07-29T13:40:41;5.47;;;1.70;;
22160;SDS011;49035;48.812;11.762;2022-07-29T13:43:11;1.45;;;1.30;;
22160;SDS011;49035;48.812;11.762;2022-07-29T13:45:37;2.65;;;1.50;;
22160;SDS011;49035;48.812;11.762;2022-07-29T13:48:03;2.65;;;1.70;;
22160;SDS011;49035;48.812;11.762;2022-07-29T13:50:29;3.75;;;1.50;;
22160;SDS011;49035;48.812;11.762;2022-07-29T13:52:54;5.22;;;1.60;;
22160;SDS011;49035;48.812;11.762;2022-07-29T13:55:20;2.10;;;1.90;;
22160;SDS011;49035;48.812;11.762;2022-07-29T13:57:46;2.65;;;1.63;;
22160;SDS011;49035;48.812;11.762;2022-07-29T14:00:12;2.92;;;1.80;;
22160;SDS011;49035;48.812;11.762;2022-07-29T14:02:38;1.75;;;1.65;;
22160;SDS011;49035;48.812;11.762;2022-07-29T14:05:05;3.28;;;2.10;;
22160;SDS011;49035;48.812;11.762;2022-07-29T14:07:31;3.97;;;2.03;;
22160;SDS011;49035;48.812;11.762;2022-07-29T14:09:57;5.10;;;2.10;;
22160;SDS011;49035;48.812;11.762;2022-07-29T14:12:23;2.83;;;1.73;;
22160;SDS011;49035;48.812;11.762;2022-07-29T14:14:48;3.00;;;2.15;;
22160;SDS011;49035;48.812;11.762;2022-07-29T14:17:14;2.33;;;1.92;;
22160;SDS011;49035;48.812;11.762;2022-07-29T14:19:40;2.20;;;1.65;;
22160;SDS011;49035;48.812;11.762;2022-07-29T14:22:07;3.17;;;1.92;;
22160;SDS011;49035;48.812;11.762;2022-07-29T14:24:33;2.35;;;1.83;;
22160;SDS011;49035;48.812;11.762;2022-07-29T14:27:00;2.88;;;1.83;;
22160;SDS011;49035;48.812;11.762;2022-07-29T14:29:26;3.88;;;2.10;;
22160;SDS011;49035;48.812;11.762;2022-07-29T14:31:52;4.10;;;1.90;;
22160;SDS011;49035;48.812;11.762;2022-07-29T14:34:18;3.72;;;2.40;;
22160;SDS011;49035;48.812;11.762;2022-07-29T14:36:44;5.35;;;2.80;;
22160;SDS011;49035;48.812;11.762;2022-07-29T14:39:10;3.75;;;2.67;;
22160;SDS011;49035;48.812;11.762;2022-07-29T14:41:36;3.58;;;2.65;;
22160;SDS011;49035;48.812;11.762;2022-07-29T14:44:01;4.57;;;2.63;;
22160;SDS011;49035;48.812;11.762;2022-07-29T14:46:27;3.50;;;2.33;;
22160;SDS011;49035;48.812;11.762;2022-07-29T14:48:53;4.22;;;2.65;;
22160;SDS011;49035;48.812;11.762;2022-07-29T14:51:19;5.00;;;2.40;;
22160;SDS011;49035;48.812;11.762;2022-07-29T14:53:45;9.02;;;2.53;;
22160;SDS011;49035;48.812;11.762;2022-07-29T14:56:10;2.67;;;2.20;;
22160;SDS011;49035;48.812;11.762;2022-07-29T14:58:36;4.82;;;2.13;;
22160;SDS011;49035;48.812;11.762;2022-07-29T15:01:02;4.70;;;2.10;;
22160;SDS011;49035;48.812;11.762;2022-07-29T15:03:27;2.45;;;2.10;;
22160;SDS011;49035;48.812;11.762;2022-07-29T15:05:53;3.78;;;2.10;;
22160;SDS011;49035;48.812;11.762;2022-07-29T15:08:19;4.13;;;2.10;;
22160;SDS011;49035;48.812;11.762;2022-07-29T15:10:45;2.60;;;2.40;;
22160;SDS011;49035;48.812;11.762;2022-07-29T15:13:10;5.07;;;3.00;;
22160;SDS011;49035;48.812;11.762;2022-07-29T15:15:36;3.20;;;2.50;;
22160;SDS011;49035;48.812;11.762;2022-07-29T15:18:02;3.13;;;2.40;;
22160;SDS011;49035;48.812;11.762;2022-07-29T15:20:28;2.85;;;2.58;;
22160;SDS011;49035;48.812;11.762;2022-07-29T15:22:54;2.58;;;2.30;;
22160;SDS011;49035;48.812;11.762;2022-07-29T15:25:21;3.22;;;2.55;;
22160;SDS011;49035;48.812;11.762;2022-07-29T15:27:47;3.78;;;2.78;;
22160;SDS011;49035;48.812;11.762;2022-07-29T15:30:12;2.80;;;2.45;;
22160;SDS011;49035;48.812;11.762;2022-07-29T15:32:40;2.90;;;2.47;;
22160;SDS011;49035;48.812;11.762;2022-07-29T15:35:06;4.85;;;2.53;;
22160;SDS011;49035;48.812;11.762;2022-07-29T15:37:31;6.10;;;2.63;;
22160;SDS011;49035;48.812;11.762;2022-07-29T15:39:59;3.05;;;2.78;;
22160;SDS011;49035;48.812;11.762;2022-07-29T15:42:25;4.55;;;2.90;;